Time;durP1;ratioP1;P1;durP2;ratioP2;P2;SDS_P1;SDS_P2;PMS_P1;PMS_P2;Temp;Humidity;BMP_temperature;BMP_pressure;BME280_temperature;BME280_humidity;BME280_pressure;Samples;Min_cycle;Max_cycle;Signal;HPM_P1;HPM_P2
2022/07/01 00:00:43;;;;;;;4.83;4.20;;;28.90;51.30;;;;;;6120266;23;20385;-84
2022/07/01 00:03:09;;;;;;;4.27;3.87;;;28.90;51.30;;;;;;6140596;23;20369;-83
2022/07/01 00:05:35;;;;;;;4.53;3.70;;;28.90;51.30;;;;;;6114190;23;20448;-83
2022/07/01 00:08:04;;;;;;;4.73;4.33;;;28.90;51.90;;;;;;6140597;23;20643;-83
2022/07/01 00:10:30;;;;;;;3.87;3.57;;;28.90;51.30;;;;;;6141231;23;20246;-83
2022/07/01 00:13:03;;;;;;;4.17;3.77;;;28.90;51.30;;;;;;6141340;23;20404;-83
2022/07/01 00:15:31;;;;;;;3.57;3.27;;;28.90;51.30;;;;;;6141828;23;20385;-82
2022/07/01 00:17:57;;;;;;;5.40;3.80;;;28.90;51.30;;;;;;6141197;23;20439;-83
2022/07/01 00:20:30;;;;;;;4.80;3.67;;;28.90;51.30;;;;;;6116745;23;20392;-83
2022/07/01 00:23:03;;;;;;;3.77;3.47;;;28.90;51.30;;;;;;6116401;23;20554;-83
2022/07/01 00:25:31;;;;;;;4.10;3.80;;;28.90;51.30;;;;;;6115736;23;20384;-83
2022/07/01 00:27:57;;;;;;;3.67;3.40;;;28.90;51.30;;;;;;6141247;23;20385;-83
2022/07/01 00:30:26;;;;;;;3.90;3.60;;;28.90;51.30;;;;;;6140957;23;20384;-83
2022/07/01 00:32:53;;;;;;;3.57;3.27;;;28.90;51.30;;;;;;6141461;23;20462;-83
2022/07/01 00:35:19;;;;;;;3.20;3.00;;;28.90;51.30;;;;;;6114567;23;20421;-83
2022/07/01 00:38:04;;;;;;;4.07;3.77;;;28.90;51.30;;;;;;6139666;23;20421;-83
2022/07/01 00:40:30;;;;;;;4.33;3.93;;;28.90;51.30;;;;;;6114615;23;20381;-83
2022/07/01 00:42:56;;;;;;;3.90;3.60;;;28.90;51.30;;;;;;6114113;23;20393;-81
2022/07/01 00:45:22;;;;;;;3.23;2.97;;;28.90;51.30;;;;;;6114774;23;20400;-83
2022/07/01 00:47:52;;;;;;;3.37;3.10;;;28.90;51.30;;;;;;6115346;23;20168;-82
2022/07/01 00:50:18;;;;;;;3.73;3.43;;;28.90;51.30;;;;;;6115985;23;20153;-83
2022/07/01 00:52:45;;;;;;;3.77;3.33;;;28.90;51.30;;;;;;6114743;23;20456;-83
2022/07/01 00:55:13;;;;;;;3.57;3.27;;;28.90;51.30;;;;;;6140881;23;20209;-83
2022/07/01 00:57:40;;;;;;;3.40;3.20;;;28.90;51.30;;;;;;6114593;23;20435;-83
2022/07/01 01:00:13;;;;;;;3.40;2.77;;;28.90;51.30;;;;;;6140196;23;20391;-82
2022/07/01 01:02:39;;;;;;;3.53;3.23;;;28.90;51.30;;;;;;6115596;23;20381;-83
2022/07/01 01:05:07;;;;;;;2.80;2.60;;;28.90;51.30;;;;;;6117077;23;20416;-83
2022/07/01 01:07:39;;;;;;;3.70;3.37;;;28.90;51.30;;;;;;6116154;23;20216;-82
2022/07/01 01:10:07;;;;;;;3.70;3.40;;;28.90;51.30;;;;;;6115859;23;20396;-82
2022/07/01 01:12:33;;;;;;;3.50;3.20;;;28.90;51.30;;;;;;6142317;23;20435;-83
2022/07/01 01:14:59;;;;;;;3.70;3.40;;;28.90;51.30;;;;;;6116266;23;20416;-83
2022/07/01 01:17:26;;;;;;;3.07;2.87;;;28.90;51.30;;;;;;6116217;23;20435;-83
2022/07/01 01:19:54;;;;;;;3.23;3.03;;;28.90;51.30;;;;;;6142286;23;20465;-83
2022/07/01 01:22:20;;;;;;;2.83;2.63;;;28.90;51.30;;;;;;6141963;23;20377;-83
2022/07/01 01:24:49;;;;;;;3.40;3.20;;;28.90;51.20;;;;;;6142518;23;20165;-83
2022/07/01 01:27:23;;;;;;;3.40;2.90;;;28.90;51.30;;;;;;6116162;23;20165;-83
2022/07/01 01:29:48;;;;;;;2.93;2.73;;;28.90;51.30;;;;;;6142236;23;20691;-83
2022/07/01 01:32:17;;;;;;;3.07;2.80;;;28.90;51.20;;;;;;6142388;23;20361;-83
2022/07/01 01:34:42;;;;;;;3.13;2.93;;;28.90;51.30;;;;;;6142201;23;20149;-83
2022/07/01 01:37:09;;;;;;;3.10;2.90;;;28.90;51.30;;;;;;6142058;23;20418;-82
2022/07/01 01:39:37;;;;;;;3.57;3.20;;;28.90;51.80;;;;;;6142162;23;20176;-83
2022/07/01 01:42:06;;;;;;;3.30;3.10;;;28.90;51.30;;;;;;6142894;23;20377;-83
2022/07/01 01:44:32;;;;;;;3.07;2.87;;;28.90;51.30;;;;;;6142317;23;20383;-83
2022/07/01 01:46:58;;;;;;;3.20;2.90;;;28.90;51.30;;;;;;6116089;23;20690;-83
2022/07/01 01:49:24;;;;;;;3.63;3.03;;;28.90;51.30;;;;;;6142317;23;20377;-83
2022/07/01 01:51:52;;;;;;;2.80;2.60;;;28.90;51.30;;;;;;6142092;23;20145;-82
2022/07/01 01:54:17;;;;;;;3.20;2.70;;;28.90;51.30;;;;;;6116291;23;20149;-83
2022/07/01 01:56:43;;;;;;;3.47;2.33;;;28.90;51.30;;;;;;6115755;23;20388;-83
2022/07/01 01:59:09;;;;;;;2.93;2.70;;;28.90;51.20;;;;;;6116007;23;20189;-83
2022/07/01 02:01:35;;;;;;;2.80;2.60;;;28.90;51.30;;;;;;6115503;23;20160;-83
2022/07/01 02:04:01;;;;;;;2.93;2.67;;;28.80;51.20;;;;;;6141401;23;20204;-82
2022/07/01 02:06:26;;;;;;;3.07;2.63;;;28.90;51.20;;;;;;6115139;23;20160;-82
2022/07/01 02:08:52;;;;;;;2.70;2.47;;;28.90;51.20;;;;;;6140917;23;20149;-82
2022/07/01 02:11:18;;;;;;;4.93;3.10;;;28.80;51.20;;;;;;6141274;23;20385;-82
2022/07/01 02:13:44;;;;;;;3.33;3.03;;;28.90;51.20;;;;;;6139540;23;20172;-82
2022/07/01 02:16:10;;;;;;;4.00;2.83;;;28.80;51.20;;;;;;6115307;23;20161;-82
2022/07/01 02:18:36;;;;;;;2.50;2.30;;;28.90;51.20;;;;;;6115369;23;20432;-82
2022/07/01 02:21:02;;;;;;;2.90;2.70;;;28.80;51.20;;;;;;6114899;23;20397;-81
2022/07/01 02:23:31;;;;;;;3.80;3.50;;;28.80;51.20;;;;;;6111164;23;20393;-82
2022/07/01 02:25:56;;;;;;;2.47;2.23;;;28.80;51.20;;;;;;6113083;23;20374;-82
2022/07/01 02:28:22;;;;;;;3.20;2.30;;;28.80;51.20;;;;;;6111851;23;20389;-81
2022/07/01 02:30:48;;;;;;;2.97;2.77;;;28.80;51.20;;;;;;6113280;23;20176;-82
2022/07/01 02:33:42;;;;;;;2.80;2.60;;;28.80;51.20;;;;;;6110173;23;20162;-82
2022/07/01 02:36:08;;;;;;;3.33;2.40;;;28.80;51.20;;;;;;6110795;23;20150;-81
2022/07/01 02:38:33;;;;;;;3.83;2.30;;;28.80;51.20;;;;;;6112163;23;20444;-81
2022/07/01 02:41:00;;;;;;;5.53;2.97;;;28.80;51.20;;;;;;6110704;23;20389;-81
2022/07/01 02:43:26;;;;;;;2.50;2.30;;;28.80;51.20;;;;;;6111057;23;20244;-81
2022/07/01 02:45:51;;;;;;;2.50;2.30;;;28.80;51.20;;;;;;6111148;23;20714;-81
2022/07/01 02:48:19;;;;;;;3.33;3.03;;;28.80;51.20;;;;;;6111005;23;20202;-81
2022/07/01 02:50:45;;;;;;;2.43;2.23;;;28.80;51.20;;;;;;6112253;23;20150;-82
2022/07/01 02:53:11;;;;;;;2.70;2.50;;;28.80;51.20;;;;;;6109789;23;20393;-82
2022/07/01 02:55:37;;;;;;;2.63;2.43;;;28.80;51.20;;;;;;6110648;23;20385;-81
2022/07/01 02:58:04;;;;;;;2.63;2.23;;;28.80;51.70;;;;;;6111157;23;20173;-81
2022/07/01 03:00:30;;;;;;;2.80;2.60;;;28.80;51.20;;;;;;6109633;23;20241;-83
2022/07/01 03:02:56;;;;;;;2.60;2.40;;;28.80;51.20;;;;;;6109684;23;20378;-83
2022/07/01 03:05:22;;;;;;;2.80;2.60;;;28.80;51.20;;;;;;6111450;23;20460;-82
2022/07/01 03:07:50;;;;;;;2.93;2.53;;;28.80;51.20;;;;;;6111637;23;20181;-82
2022/07/01 03:10:16;;;;;;;3.93;2.30;;;28.80;51.20;;;;;;6110275;23;20400;-83
2022/07/01 03:12:42;;;;;;;2.17;1.97;;;28.80;51.20;;;;;;6111488;23;20374;-83
2022/07/01 03:15:13;;;;;;;2.80;2.50;;;28.80;51.20;;;;;;6110076;23;20390;-83
2022/07/01 03:17:41;;;;;;;3.40;2.50;;;28.70;51.20;;;;;;6109389;23;20188;-82
2022/07/01 03:20:09;;;;;;;3.10;2.50;;;28.70;51.10;;;;;;6111344;23;20775;-83
2022/07/01 03:22:37;;;;;;;2.77;2.50;;;28.70;51.10;;;;;;6109686;23;20943;-83
2022/07/01 03:25:05;;;;;;;2.30;2.10;;;28.80;51.10;;;;;;6115326;23;20389;-83
2022/07/01 03:27:31;;;;;;;2.20;2.00;;;28.70;51.10;;;;;;6141695;23;20701;-82
2022/07/01 03:29:57;;;;;;;2.60;2.07;;;28.70;51.10;;;;;;6115740;23;20381;-83
2022/07/01 03:32:27;;;;;;;2.53;2.33;;;28.80;51.10;;;;;;6141126;23;20388;-83
2022/07/01 03:34:54;;;;;;;3.60;2.67;;;28.80;51.20;;;;;;6114639;23;20149;-83
2022/07/01 03:37:21;;;;;;;2.77;2.43;;;28.70;51.10;;;;;;6140373;23;20435;-83
2022/07/01 03:39:48;;;;;;;2.40;2.20;;;28.80;51.10;;;;;;6115885;23;20391;-83
2022/07/01 03:42:14;;;;;;;4.03;2.60;;;28.70;51.10;;;;;;6115761;23;20397;-83
2022/07/01 03:44:40;;;;;;;2.13;1.93;;;28.80;51.10;;;;;;6115106;23;20385;-83
2022/07/01 03:47:13;;;;;;;2.70;2.13;;;28.70;51.10;;;;;;6115114;23;20666;-83
2022/07/01 03:49:42;;;;;;;2.80;2.60;;;28.70;51.10;;;;;;6141022;23;20377;-84
2022/07/01 03:52:08;;;;;;;2.37;2.17;;;28.70;51.10;;;;;;6114847;23;20698;-83
2022/07/01 03:54:37;;;;;;;2.53;2.33;;;28.70;51.00;;;;;;6114984;23;20387;-83
2022/07/01 03:57:04;;;;;;;4.70;2.20;;;28.70;51.00;;;;;;6140700;23;20149;-82
2022/07/01 03:59:33;;;;;;;2.10;2.00;;;28.70;51.00;;;;;;6140630;23;20385;-82
2022/07/01 04:02:03;;;;;;;3.07;2.40;;;28.70;51.00;;;;;;6114541;23;20443;-81
2022/07/01 04:04:32;;;;;;;2.50;2.33;;;28.70;51.00;;;;;;6115000;23;20389;-82
2022/07/01 04:07:09;;;;;;;2.50;2.30;;;28.70;51.00;;;;;;6114786;23;20381;-83
2022/07/01 04:09:35;;;;;;;2.13;1.97;;;28.70;51.00;;;;;;6114667;23;20405;-83
2022/07/01 04:12:12;;;;;;;2.40;2.20;;;28.80;51.10;;;;;;6115055;23;20413;-82
2022/07/01 04:14:40;;;;;;;2.40;2.20;;;28.80;51.10;;;;;;6141001;23;20129;-82
2022/07/01 04:17:13;;;;;;;2.33;2.10;;;28.70;51.00;;;;;;6141133;23;20376;-82
2022/07/01 04:19:39;;;;;;;2.17;1.97;;;28.70;51.00;;;;;;6114813;23;20401;-82
2022/07/01 04:24:49;;;;;;;1.90;1.80;;;28.70;51.00;;;;;;6141105;23;20392;-83
2022/07/01 04:27:17;;;;;;;2.07;1.90;;;28.70;51.00;;;;;;6140836;23;20380;-83
2022/07/01 04:33:06;;;;;;;2.07;1.97;;;28.70;51.00;;;;;;6140485;23;20381;-83
2022/07/01 04:46:25;;;;;;;2.47;2.20;;;28.70;51.00;;;;;;6141319;23;20348;-83
2022/07/01 04:49:14;;;;;;;2.30;2.10;;;28.70;51.10;;;;;;6139417;23;20392;-82
2022/07/01 04:52:40;;;;;;;2.57;2.07;;;28.60;51.00;;;;;;6115534;23;20384;-82
2022/07/01 04:55:31;;;;;;;2.00;1.80;;;28.70;51.10;;;;;;6115768;23;20392;-82
2022/07/01 04:58:18;;;;;;;2.40;2.13;;;28.70;51.10;;;;;;6141994;23;20403;-82
2022/07/01 05:04:16;;;;;;;2.20;2.00;;;28.70;51.10;;;;;;6141557;23;20345;-82
2022/07/01 05:07:01;;;;;;;2.40;2.20;;;28.70;51.10;;;;;;6142118;23;20373;-83
2022/07/01 05:09:30;;;;;;;2.50;2.10;;;28.70;51.10;;;;;;6114848;23;20373;-84
2022/07/01 05:11:57;;;;;;;2.30;2.00;;;28.70;51.10;;;;;;6114876;23;20391;-82
2022/07/01 05:14:28;;;;;;;2.80;2.50;;;28.70;51.10;;;;;;6140258;23;20377;-82
2022/07/01 05:16:54;;;;;;;2.33;1.90;;;28.60;51.00;;;;;;6114268;23;20377;-82
2022/07/01 05:22:24;;;;;;;2.57;2.07;;;28.70;51.10;;;;;;6141526;23;20357;-82
2022/07/01 05:24:52;;;;;;;2.53;1.97;;;28.70;51.10;;;;;;6109258;23;20510;-81
2022/07/01 05:31:33;;;;;;;1.97;1.77;;;28.70;51.10;;;;;;6094211;23;20392;-82
2022/07/01 05:34:21;;;;;;;1.90;1.70;;;28.70;51.10;;;;;;6112143;23;20384;-82
2022/07/01 05:40:52;;;;;;;3.00;1.80;;;28.70;51.20;;;;;;6109354;23;20393;-82
2022/07/01 05:43:30;;;;;;;1.77;1.60;;;28.70;51.20;;;;;;6109992;23;20433;-82
2022/07/01 05:59:51;;;;;;;1.90;1.80;;;28.60;51.20;;;;;;6023738;23;20541;-82
2022/07/01 06:12:40;;;;;;;4.43;1.47;;;28.60;51.20;;;;;;6022306;23;20352;-82
2022/07/01 06:22:06;;;;;;;1.43;1.30;;;28.60;51.20;;;;;;6023790;23;20617;-82
2022/07/01 06:25:00;;;;;;;2.17;1.10;;;28.60;51.20;;;;;;5997871;23;20903;-82
2022/07/01 06:31:33;;;;;;;;;;;;;;;;;;;;;
2022/07/01 07:04:47;;;;;;;;;;;;;;;;;;;;;
2022/07/01 07:08:08;;;;;;;;;;;;;;;;;;;;;
2022/07/01 07:37:23;;;;;;;1.10;1.00;;;28.60;51.00;;;;;;5938103;23;20382;-81
2022/07/01 07:53:35;;;;;;;1.40;1.10;;;28.60;50.90;;;;;;5911044;24;20394;-82
2022/07/01 08:03:00;;;;;;;1.60;1.30;;;28.60;50.90;;;;;;5890876;24;20399;-82
2022/07/01 08:12:30;;;;;;;1.43;1.20;;;28.60;50.90;;;;;;5912834;24;20416;-82
2022/07/01 08:15:27;;;;;;;1.43;1.30;;;28.60;50.90;;;;;;5934795;24;20452;-82
2022/07/01 08:25:13;;;;;;;;;;;;;;;;;;;;;
2022/07/01 10:42:10;;;;;;;1.70;1.50;;;28.50;50.70;;;;;;5788207;24;20430;-81
2022/07/01 11:06:15;;;;;;;;;;;;;;;;;;;;;
2022/07/01 11:15:54;;;;;;;1.60;1.50;;;28.50;50.70;;;;;;5759323;24;20404;-82
2022/07/01 11:18:35;;;;;;;1.87;1.30;;;28.50;50.70;;;;;;5829993;24;20430;-82
2022/07/01 11:21:35;;;;;;;1.50;1.40;;;28.50;50.70;;;;;;5797966;24;20396;-83
2022/07/01 12:02:09;;;;;;;;;;;;;;;;;;;;;
2022/07/01 12:38:14;;;;;;;1.80;1.60;;;28.40;50.50;;;;;;5750419;25;20439;-81
2022/07/01 12:40:43;;;;;;;2.23;1.77;;;28.40;50.50;;;;;;5729753;24;20405;-81
2022/07/01 12:50:37;;;;;;;1.60;1.33;;;28.50;50.40;;;;;;5751873;24;20373;-81
2022/07/01 12:53:48;;;;;;;2.10;1.33;;;28.50;50.40;;;;;;5749099;25;20458;-81
2022/07/01 13:27:53;;;;;;;;;;;;;;;;;;;;;
2022/07/01 13:44:15;;;;;;;1.70;1.30;;;28.40;50.30;;;;;;5804139;24;20390;-82
2022/07/01 13:47:13;;;;;;;1.30;1.20;;;28.40;50.30;;;;;;5793734;24;20392;-82
2022/07/01 13:49:42;;;;;;;1.40;1.10;;;28.40;50.30;;;;;;5806395;24;20391;-82
2022/07/01 13:52:49;;;;;;;1.20;1.10;;;28.40;50.30;;;;;;5808670;24;20397;-82
2022/07/01 14:09:20;;;;;;;1.60;0.93;;;28.50;50.30;;;;;;5884943;24;20364;-82
2022/07/01 14:12:11;;;;;;;1.90;1.10;;;28.40;50.30;;;;;;5862487;24;20389;-82
2022/07/01 14:14:49;;;;;;;1.70;1.00;;;28.50;50.30;;;;;;5880983;24;20401;-81
2022/07/01 14:25:07;;;;;;;;;;;;;;;;;;;;;
2022/07/01 14:30:49;;;;;;;2.20;1.00;;;28.40;50.30;;;;;;5886321;24;21007;-82
2022/07/01 14:34:45;;;;;;;;;;;;;;;;;;;;;
2022/07/01 14:36:45;;;;;;;1.77;1.07;;;28.40;50.30;;;;;;5936497;24;20428;-83
2022/07/01 14:39:58;;;;;;;;;;;;;;;;;;;;;
2022/07/01 14:42:55;;;;;;;1.23;1.10;;;28.40;50.30;;;;;;6010276;23;20408;-83
2022/07/01 14:46:00;;;;;;;2.00;1.00;;;28.50;50.30;;;;;;6028411;23;20394;-83
2022/07/01 14:49:00;;;;;;;3.20;1.40;;;28.50;50.30;;;;;;6029547;23;20442;-83
2022/07/01 14:52:17;;;;;;;;;;;;;;;;;;;;;
2022/07/01 15:02:03;;;;;;;1.67;0.97;;;28.50;50.30;;;;;;6051445;23;20408;-82
2022/07/01 15:28:38;;;;;;;1.10;0.80;;;28.40;50.30;;;;;;5917083;24;20403;-83
2022/07/01 15:34:46;;;;;;;2.47;1.10;;;28.40;50.30;;;;;;5966302;24;20506;-82
2022/07/01 15:37:12;;;;;;;1.50;0.93;;;28.40;50.30;;;;;;5943149;24;20861;-82
2022/07/01 15:39:44;;;;;;;1.10;0.87;;;28.40;50.30;;;;;;6000912;23;20407;-84
2022/07/01 15:42:38;;;;;;;1.70;1.00;;;28.50;50.30;;;;;;6028375;23;20452;-84
2022/07/01 15:52:22;;;;;;;1.30;0.90;;;28.50;50.20;;;;;;5999898;24;20379;-84
2022/07/01 15:55:10;;;;;;;1.00;0.80;;;28.40;50.20;;;;;;5996766;24;20407;-84
2022/07/01 15:57:51;;;;;;;1.30;0.80;;;28.50;50.20;;;;;;5993012;24;20461;-82
2022/07/01 16:00:20;;;;;;;1.57;0.80;;;28.50;50.30;;;;;;5994225;24;20377;-82
2022/07/01 16:03:04;;;;;;;0.97;0.80;;;28.50;50.20;;;;;;5994491;24;20389;-82
2022/07/01 16:06:00;;;;;;;1.50;1.00;;;28.50;50.20;;;;;;5993779;24;20896;-82
2022/07/01 16:08:47;;;;;;;;;;;;;;;;;;;;;
2022/07/01 16:11:25;;;;;;;1.40;1.10;;;28.50;50.10;;;;;;5973181;24;20418;-82
2022/07/01 16:14:48;;;;;;;1.53;0.90;;;28.50;50.70;;;;;;5993298;23;20401;-82
2022/07/01 16:17:29;;;;;;;1.20;0.90;;;28.50;50.10;;;;;;5993458;24;20551;-83
2022/07/01 16:20:14;;;;;;;1.30;1.00;;;28.50;50.10;;;;;;5993499;24;20401;-83
2022/07/01 16:23:10;;;;;;;1.53;0.97;;;28.50;50.10;;;;;;5993968;24;20456;-81
2022/07/01 16:25:57;;;;;;;0.90;0.80;;;28.50;50.10;;;;;;6108688;23;20895;-81
2022/07/01 16:28:26;;;;;;;1.10;0.90;;;28.50;50.10;;;;;;6113351;23;20756;-82
2022/07/01 16:31:17;;;;;;;1.60;1.10;;;28.50;50.10;;;;;;6139807;23;20456;-82
2022/07/01 16:33:43;;;;;;;1.30;0.80;;;28.50;50.10;;;;;;6115834;23;20392;-82
2022/07/01 16:53:58;;;;;;;1.27;0.90;;;28.40;50.60;;;;;;5995899;24;20380;-81
2022/07/01 17:00:56;;;;;;;1.87;1.10;;;28.40;50.10;;;;;;5912301;24;20413;-83
2022/07/01 17:03:51;;;;;;;1.00;0.80;;;28.40;50.10;;;;;;5908552;24;20389;-82
2022/07/01 17:07:53;;;;;;;1.77;0.97;;;28.40;50.10;;;;;;5938700;24;20439;-81
2022/07/01 17:55:40;;;;;;;;;;;;;;;;;;;;;
2022/07/01 19:59:52;;;;;;;;;;;;;;;;;;;;;
2022/07/01 20:17:00;;;;;;;2.77;1.40;;;27.60;48.50;;;;;;5966295;23;20760;-81
2022/07/01 20:20:08;;;;;;;;;;;;;;;;;;;;;
2022/07/01 22:44:34;;;;;;;2.83;1.50;;;27.10;48.70;;;;;;5699719;25;20383;-82
2022/07/01 23:01:44;;;;;;;1.73;1.63;;;27.20;48.80;;;;;;5802906;24;20404;-82
2022/07/01 23:22:12;;;;;;;;;;;;;;;;;;;;;
2022/07/01 23:36:17;;;;;;;;;;;;;;;;;;;;;
